Time;durP1;ratioP1;P1;durP2;ratioP2;P2;SDS_P1;SDS_P2;PMS_P1;PMS_P2;Temp;Humidity;BMP_temperature;BMP_pressure;BME280_temperature;BME280_humidity;BME280_pressure;Samples;Min_cycle;Max_cycle;Signal;HPM_P1;HPM_P2
2021/09/25 00:02:08;;;;;;;7.38;5.38;;;16.40;73.60;;;16.60;58.80;97760.31;5065942;28;20044;-38
2021/09/25 00:04:36;;;;;;;9.23;5.75;;;16.40;73.50;;;16.61;58.69;97759.28;5066783;28;20471;-38
2021/09/25 00:07:04;;;;;;;6.78;5.30;;;16.40;73.50;;;16.61;58.81;97757.41;5065321;28;20052;-38
2021/09/25 00:09:32;;;;;;;8.40;6.10;;;16.40;73.50;;;16.63;58.65;97755.34;5064460;28;20055;-38
2021/09/25 00:12:00;;;;;;;9.30;6.25;;;16.40;73.40;;;16.62;58.79;97759.09;5064083;28;20049;-36
2021/09/25 00:14:28;;;;;;;7.35;4.88;;;16.40;73.40;;;16.63;58.69;97749.16;5064864;28;20066;-36
2021/09/25 00:16:56;;;;;;;7.10;5.60;;;16.40;73.40;;;16.63;58.60;97749.97;5064493;28;20048;-36
2021/09/25 00:19:24;;;;;;;7.90;5.85;;;16.40;73.40;;;16.63;58.67;97749.97;5066176;28;20052;-37
2021/09/25 00:21:52;;;;;;;5.57;4.65;;;16.40;73.40;;;16.63;58.77;97749.16;5066253;28;20347;-37
2021/09/25 00:24:19;;;;;;;5.93;5.32;;;16.40;73.40;;;16.62;58.63;97742.13;5064810;28;20055;-37
2021/09/25 00:26:47;;;;;;;6.97;4.82;;;16.40;73.30;;;16.62;58.75;97739.44;5065301;28;20064;-36
2021/09/25 00:29:15;;;;;;;8.20;5.95;;;16.40;73.30;;;16.63;58.44;97738.41;5064079;28;20082;-36
2021/09/25 00:31:43;;;;;;;8.73;6.57;;;16.40;73.20;;;16.62;58.58;97740.28;5065229;28;20056;-37
2021/09/25 00:34:12;;;;;;;9.13;5.20;;;16.40;73.20;;;16.61;58.43;97740.47;5066129;28;20048;-37
2021/09/25 00:36:40;;;;;;;11.23;5.50;;;16.40;73.30;;;16.58;58.52;97733.63;5066241;28;20060;-37
2021/09/25 00:39:08;;;;;;;8.45;5.40;;;16.40;73.30;;;16.58;58.58;97741.69;5066101;28;20361;-37
2021/09/25 00:41:36;;;;;;;7.13;5.25;;;16.40;73.30;;;16.58;58.53;97748.94;5065723;28;20243;-37
2021/09/25 00:44:04;;;;;;;6.90;5.20;;;16.40;73.30;;;16.58;58.59;97738.19;5065755;28;20266;-36
2021/09/25 00:46:33;;;;;;;6.40;4.97;;;16.40;73.20;;;16.58;58.58;97746.25;5064868;28;20367;-36
2021/09/25 00:49:00;;;;;;;6.05;5.13;;;16.30;73.20;;;16.56;58.39;97742.94;5064785;28;20058;-37
2021/09/25 00:51:29;;;;;;;5.80;5.03;;;16.30;73.20;;;16.54;58.43;97748.50;5065501;28;20052;-37
2021/09/25 00:53:56;;;;;;;6.38;4.88;;;16.30;73.90;;;16.52;58.51;97742.50;5064980;28;20072;-37
2021/09/25 00:56:26;;;;;;;6.32;4.88;;;16.30;73.00;;;16.50;58.43;97750.75;5065333;28;20543;-37
2021/09/25 00:58:54;;;;;;;6.65;5.18;;;16.20;72.90;;;16.50;58.36;97747.22;5065444;28;20062;-37
2021/09/25 01:01:22;;;;;;;5.72;4.88;;;16.30;72.90;;;16.48;58.17;97744.72;5064803;28;20058;-37
2021/09/25 01:03:50;;;;;;;7.22;5.43;;;16.20;72.70;;;16.48;58.16;97742.03;5062840;28;20048;-37
2021/09/25 01:06:18;;;;;;;6.68;5.35;;;16.20;72.60;;;16.45;58.08;97746.97;5065207;28;20491;-37
2021/09/25 01:08:46;;;;;;;8.23;4.53;;;16.20;72.50;;;16.42;58.00;97741.97;5065725;28;20052;-37
2021/09/25 01:11:14;;;;;;;6.20;4.80;;;16.20;72.40;;;16.40;57.99;97739.53;5065690;28;20361;-37
2021/09/25 01:13:42;;;;;;;7.38;5.13;;;16.20;72.30;;;16.38;57.87;97736.19;5062906;28;20079;-37
2021/09/25 01:16:10;;;;;;;8.40;4.75;;;16.10;72.20;;;16.37;57.88;97744.44;5062248;28;20044;-37
2021/09/25 01:18:38;;;;;;;6.30;4.95;;;16.10;72.00;;;16.34;57.63;97743.81;5062224;28;20224;-37
2021/09/25 01:21:09;;;;;;;5.65;4.43;;;16.10;71.70;;;16.33;57.34;97744.81;5066936;28;20064;-37
2021/09/25 01:23:38;;;;;;;5.85;4.55;;;16.10;71.20;;;16.32;57.25;97748.56;5064648;28;20059;-37
2021/09/25 01:26:06;;;;;;;6.20;4.47;;;16.00;70.90;;;16.31;57.26;97740.69;5064736;28;20059;-38
2021/09/25 01:28:37;;;;;;;5.35;4.32;;;16.00;70.70;;;16.31;56.96;97738.81;5063865;28;20489;-37
2021/09/25 01:31:08;;;;;;;5.25;4.15;;;16.10;70.70;;;16.31;56.89;97743.38;5064881;28;20067;-37
2021/09/25 01:33:44;;;;;;;6.30;4.65;;;16.10;70.10;;;16.29;56.74;97743.56;5063196;28;20070;-37
2021/09/25 01:36:13;;;;;;;5.50;4.28;;;16.10;69.80;;;16.27;56.46;97742.94;5064283;28;20048;-36
2021/09/25 01:38:43;;;;;;;5.82;4.30;;;16.10;69.80;;;16.26;56.72;97741.25;5066482;28;20056;-37
2021/09/25 01:41:13;;;;;;;4.90;4.38;;;16.00;69.60;;;16.22;56.51;97741.84;5066187;28;20058;-37
2021/09/25 01:43:41;;;;;;;6.20;4.57;;;16.00;70.60;;;16.18;56.34;97738.72;5065646;28;20088;-37
2021/09/25 01:46:10;;;;;;;5.85;4.15;;;15.90;69.70;;;16.17;56.39;97745.13;5065032;28;20319;-37
2021/09/25 01:48:38;;;;;;;7.60;4.32;;;15.90;69.80;;;16.12;56.47;97742.19;5064162;28;20059;-37
2021/09/25 01:51:06;;;;;;;5.78;4.03;;;15.80;70.00;;;16.06;56.59;97748.34;5062852;28;20060;-37
2021/09/25 01:53:34;;;;;;;6.03;4.82;;;15.80;70.40;;;16.03;56.67;97749.56;5063893;28;20056;-37
2021/09/25 01:56:28;;;;;;;7.15;4.90;;;15.70;70.40;;;15.99;56.68;97753.63;5063358;28;20056;-36
2021/09/25 01:58:56;;;;;;;7.82;4.38;;;15.70;70.50;;;15.92;56.68;97761.63;5063042;28;20075;-37
2021/09/25 02:01:24;;;;;;;7.35;5.45;;;15.60;70.80;;;15.86;56.64;97757.03;5064587;28;20051;-37
2021/09/25 02:03:52;;;;;;;5.43;4.20;;;15.50;71.00;;;15.80;56.81;97756.97;5065853;28;20052;-37
2021/09/25 02:06:20;;;;;;;7.90;5.53;;;15.40;71.20;;;15.74;56.91;97759.41;5063544;28;20339;-37
2021/09/25 02:08:48;;;;;;;7.70;5.28;;;15.40;71.40;;;15.72;57.01;97755.19;5065237;28;20051;-37
2021/09/25 02:11:17;;;;;;;6.53;5.13;;;15.40;71.30;;;15.69;57.20;97760.97;5064307;28;20246;-36
2021/09/25 02:13:44;;;;;;;7.88;5.65;;;15.40;71.40;;;15.66;57.20;97756.78;5064290;28;20437;-37
2021/09/25 02:16:13;;;;;;;6.55;5.43;;;15.30;71.50;;;15.62;57.14;97755.50;5065329;28;20171;-37
2021/09/25 02:18:42;;;;;;;6.15;5.07;;;15.30;71.70;;;15.56;57.40;97750.91;5063743;28;20357;-37
2021/09/25 02:21:10;;;;;;;9.07;6.28;;;15.20;71.80;;;15.53;57.43;97754.00;5065544;28;20056;-37
2021/09/25 02:23:38;;;;;;;7.15;4.82;;;15.20;71.90;;;15.50;57.45;97757.06;5064717;28;20051;-37
2021/09/25 02:26:06;;;;;;;8.15;6.07;;;15.20;72.10;;;15.43;57.94;97759.66;5064956;28;20062;-37
2021/09/25 02:28:34;;;;;;;8.15;5.97;;;15.00;72.80;;;15.39;57.93;97758.34;5065269;28;20350;-36
2021/09/25 02:31:02;;;;;;;7.93;6.15;;;15.00;73.00;;;15.35;58.11;97765.97;5065448;28;20262;-37
2021/09/25 02:33:30;;;;;;;8.50;6.47;;;15.00;73.10;;;15.32;58.12;97765.53;5066160;28;20052;-37
2021/09/25 02:35:58;;;;;;;7.80;6.35;;;14.90;73.40;;;15.27;58.30;97759.88;5066365;28;20049;-36
2021/09/25 02:38:26;;;;;;;7.07;4.82;;;14.90;73.70;;;15.25;58.45;97757.38;5067758;28;20059;-37
2021/09/25 02:40:55;;;;;;;8.93;5.32;;;14.90;73.80;;;15.25;58.41;97761.91;5068729;28;20059;-37
2021/09/25 02:43:23;;;;;;;7.18;5.32;;;14.90;73.70;;;15.19;58.50;97751.94;5066992;28;20052;-37
2021/09/25 02:45:51;;;;;;;6.18;5.57;;;14.80;73.60;;;15.13;58.55;97748.16;5067962;28;20062;-37
2021/09/25 02:48:18;;;;;;;6.13;5.07;;;14.80;73.70;;;15.12;58.51;97744.66;5067486;28;20045;-37
2021/09/25 02:50:47;;;;;;;6.50;4.38;;;14.80;73.60;;;15.12;58.52;97743.81;5067877;28;20051;-37
2021/09/25 02:53:15;;;;;;;6.13;4.35;;;14.80;73.60;;;15.11;58.60;97739.47;5067736;28;20058;-37
2021/09/25 02:55:43;;;;;;;5.63;4.63;;;14.80;73.60;;;15.11;58.54;97731.44;5067696;28;20335;-37
2021/09/25 02:58:11;;;;;;;8.50;5.35;;;14.90;73.70;;;15.12;58.66;97733.09;5067824;28;20056;-37
2021/09/25 03:00:38;;;;;;;8.23;5.47;;;14.90;73.60;;;15.13;58.64;97734.75;5068154;28;20329;-37
2021/09/25 03:03:07;;;;;;;10.68;5.30;;;14.80;73.30;;;15.10;58.55;97730.63;5067689;28;20262;-37
2021/09/25 03:05:37;;;;;;;7.38;4.82;;;14.80;73.50;;;15.07;58.64;97728.28;5067227;28;20335;-37
2021/09/25 03:08:05;;;;;;;7.38;5.35;;;14.80;73.50;;;15.06;58.74;97733.84;5080580;28;20071;-37
2021/09/25 03:10:34;;;;;;;10.95;5.45;;;14.80;73.60;;;15.03;58.90;97740.41;5067160;28;20058;-38
2021/09/25 03:13:02;;;;;;;8.02;5.72;;;14.70;74.10;;;14.99;58.92;97732.94;5066649;28;20056;-37
2021/09/25 03:15:30;;;;;;;7.53;5.93;;;14.70;74.20;;;14.97;58.95;97733.13;5066356;28;20067;-37
2021/09/25 03:17:57;;;;;;;7.85;5.70;;;14.70;74.30;;;14.93;58.94;97732.66;5066946;28;20064;-37
2021/09/25 03:20:26;;;;;;;9.85;6.53;;;14.60;74.20;;;14.91;59.16;97725.84;5066983;28;20052;-37
2021/09/25 03:22:54;;;;;;;7.30;6.00;;;14.60;74.30;;;14.90;58.93;97724.97;5066261;28;20062;-37
2021/09/25 03:25:22;;;;;;;9.02;7.07;;;14.60;74.40;;;14.79;59.21;97725.44;5066080;28;20055;-37
2021/09/25 03:27:54;;;;;;;9.23;6.35;;;14.40;74.50;;;14.70;59.41;97730.09;5066072;28;20254;-37
2021/09/25 03:30:23;;;;;;;7.53;5.60;;;14.30;75.40;;;14.68;59.48;97724.09;5065539;28;20054;-37
2021/09/25 03:32:52;;;;;;;7.03;5.18;;;14.30;75.40;;;14.64;59.56;97720.13;5066144;28;20056;-37
2021/09/25 03:35:20;;;;;;;7.85;5.57;;;14.20;75.30;;;14.63;59.51;97723.81;5066418;28;20044;-37
2021/09/25 03:37:48;;;;;;;6.82;5.22;;;14.20;75.30;;;14.64;59.42;97720.13;5066749;28;20051;-37
2021/09/25 03:40:16;;;;;;;8.90;5.68;;;14.30;75.00;;;14.64;59.47;97722.81;5066659;28;20076;-37
2021/09/25 03:42:44;;;;;;;7.00;5.50;;;14.30;75.00;;;14.66;59.25;97726.13;5065816;28;20047;-37
2021/09/25 03:45:12;;;;;;;9.00;6.55;;;14.40;74.60;;;14.66;59.07;97718.09;5066909;28;20058;-37
2021/09/25 03:47:40;;;;;;;9.05;6.28;;;14.30;74.70;;;14.57;59.31;97717.34;5065846;28;20064;-37
2021/09/25 03:50:08;;;;;;;10.10;6.70;;;14.20;75.10;;;14.51;59.58;97726.09;5066594;28;20068;-37
2021/09/25 03:52:36;;;;;;;7.68;5.22;;;14.10;75.70;;;14.46;59.49;97725.81;5066394;28;20263;-37
2021/09/25 03:55:07;;;;;;;8.70;5.35;;;14.00;76.00;;;14.43;59.79;97726.19;5066616;28;20074;-37
2021/09/25 03:57:35;;;;;;;6.80;5.25;;;14.00;76.10;;;14.37;59.68;97727.75;5063955;28;20234;-37
2021/09/25 04:00:04;;;;;;;8.07;5.03;;;13.90;76.00;;;14.34;59.79;97727.28;5065802;28;20060;-37
2021/09/25 04:02:32;;;;;;;7.80;5.18;;;13.90;76.30;;;14.29;59.80;97727.00;5066242;28;20047;-37
2021/09/25 04:05:00;;;;;;;7.05;5.07;;;13.90;76.30;;;14.25;59.95;97728.34;5066140;28;20382;-37
2021/09/25 04:07:28;;;;;;;5.95;4.80;;;13.80;76.20;;;14.22;59.92;97724.22;5065778;28;20054;-37
2021/09/25 04:09:56;;;;;;;9.15;5.38;;;13.80;76.20;;;14.22;59.86;97718.03;5066885;28;20056;-37
2021/09/25 04:12:24;;;;;;;7.22;4.97;;;13.90;76.20;;;14.20;59.73;97717.38;5065441;28;20056;-37
2021/09/25 04:14:52;;;;;;;6.90;4.97;;;13.90;76.10;;;14.19;59.77;97719.25;5064865;28;20064;-37
2021/09/25 04:17:20;;;;;;;6.35;5.20;;;13.80;75.80;;;14.13;59.96;97711.91;5063246;28;20056;-37
2021/09/25 04:19:47;;;;;;;9.48;6.68;;;13.80;76.10;;;14.14;59.95;97716.25;5065309;28;20270;-37
2021/09/25 04:22:15;;;;;;;6.90;4.97;;;13.80;76.10;;;14.17;59.91;97723.91;5066439;28;20056;-37
2021/09/25 04:24:43;;;;;;;6.32;5.13;;;13.90;75.90;;;14.17;59.82;97716.72;5066812;28;20048;-38
2021/09/25 04:27:12;;;;;;;7.68;5.60;;;13.80;75.50;;;14.14;60.18;97717.09;5065513;28;20062;-37
2021/09/25 04:29:40;;;;;;;7.40;5.38;;;13.80;75.70;;;14.10;59.90;97726.50;5065120;28;20126;-37
2021/09/25 04:32:07;;;;;;;7.47;5.75;;;13.80;75.80;;;14.08;59.99;97722.34;5066371;28;20091;-37
2021/09/25 04:34:35;;;;;;;9.20;6.30;;;13.80;75.80;;;14.07;59.90;97718.00;5066405;28;20052;-37
2021/09/25 04:37:03;;;;;;;8.27;5.82;;;13.70;75.90;;;14.05;59.99;97723.53;5064930;28;20061;-37
2021/09/25 04:39:31;;;;;;;7.03;5.53;;;13.70;75.90;;;13.98;60.11;97725.28;5065077;28;20535;-37
2021/09/25 04:41:59;;;;;;;7.07;5.22;;;13.60;76.10;;;13.94;60.34;97729.34;5065732;28;20048;-37
2021/09/25 04:44:27;;;;;;;9.02;6.18;;;13.60;76.60;;;13.89;60.43;97726.34;5066465;28;20060;-37
2021/09/25 04:46:55;;;;;;;6.97;5.22;;;13.50;77.00;;;13.86;60.72;97732.06;5063983;28;20055;-37
2021/09/25 04:49:23;;;;;;;8.15;6.03;;;13.50;77.40;;;13.85;60.67;97725.88;5065278;28;20063;-36
2021/09/25 04:51:51;;;;;;;6.95;5.38;;;13.50;77.30;;;13.86;60.59;97738.25;5065229;28;20055;-37
2021/09/25 04:54:18;;;;;;;7.38;5.80;;;13.50;77.10;;;13.83;60.58;97727.91;5065281;28;20072;-37
2021/09/25 04:56:47;;;;;;;9.10;5.97;;;13.50;77.10;;;13.82;60.66;97728.06;5067241;28;20056;-36
2021/09/25 04:59:15;;;;;;;7.78;6.35;;;13.50;77.80;;;13.82;60.26;97733.44;5064859;28;20041;-37
2021/09/25 05:01:42;;;;;;;6.90;5.57;;;13.50;76.50;;;13.82;60.45;97738.78;5065017;28;20060;-37
2021/09/25 05:04:12;;;;;;;9.75;8.65;;;13.50;76.50;;;13.81;60.34;97746.00;5064791;28;20052;-37
2021/09/25 05:06:40;;;;;;;10.40;8.35;;;13.50;76.50;;;13.81;60.57;97735.28;5064669;28;20052;-36
2021/09/25 05:09:08;;;;;;;8.75;6.35;;;13.50;76.70;;;13.85;60.91;97741.94;5064517;28;20493;-37
2021/09/25 05:11:36;;;;;;;11.50;5.43;;;13.50;76.90;;;13.87;60.89;97736.41;5064560;28;20052;-36
2021/09/25 05:14:04;;;;;;;7.10;5.00;;;13.50;77.30;;;13.86;60.95;97740.94;5067297;28;20048;-37
2021/09/25 05:16:32;;;;;;;7.07;5.18;;;13.60;77.60;;;13.87;60.95;97729.22;5064564;28;20052;-36
2021/09/25 05:19:00;;;;;;;6.63;4.55;;;13.60;77.70;;;13.85;61.24;97725.88;5064106;28;20057;-36
2021/09/25 05:21:28;;;;;;;5.97;4.78;;;13.50;77.90;;;13.87;61.13;97726.53;5064509;28;20057;-36
2021/09/25 05:23:56;;;;;;;6.93;4.68;;;13.50;77.80;;;13.87;61.15;97731.88;5066269;28;20052;-36
2021/09/25 05:26:23;;;;;;;6.97;5.50;;;13.50;77.70;;;13.89;61.15;97729.03;5065088;28;20052;-37
2021/09/25 05:28:51;;;;;;;7.72;5.22;;;13.60;77.70;;;13.85;61.16;97731.22;5064774;28;20057;-37
2021/09/25 05:31:19;;;;;;;7.57;5.30;;;13.50;77.70;;;13.81;61.05;97724.56;5066062;28;20062;-36
2021/09/25 05:33:47;;;;;;;11.27;5.38;;;13.50;78.10;;;13.85;61.18;97735.75;5064959;28;20372;-36
2021/09/25 05:36:15;;;;;;;8.40;5.53;;;13.50;78.30;;;13.82;61.20;97736.94;5064459;28;20369;-36
2021/09/25 05:38:43;;;;;;;7.82;4.93;;;13.50;78.10;;;13.82;61.22;97738.78;5065203;28;20084;-36
2021/09/25 05:41:11;;;;;;;6.93;5.28;;;13.50;78.00;;;13.79;61.18;97738.13;5065952;28;20056;-36
2021/09/25 05:43:39;;;;;;;7.50;5.43;;;13.50;78.00;;;13.81;61.22;97727.25;5064245;28;20066;-36
2021/09/25 05:46:07;;;;;;;7.10;5.78;;;13.50;77.90;;;13.83;61.36;97727.91;5064025;28;20622;-36
2021/09/25 05:48:35;;;;;;;7.65;6.10;;;13.50;77.90;;;13.84;61.13;97729.59;5065692;28;20220;-36
2021/09/25 05:51:04;;;;;;;9.15;5.93;;;13.60;77.60;;;13.84;61.19;97734.09;5064584;28;20062;-36
2021/09/25 05:53:32;;;;;;;9.23;6.50;;;13.60;77.80;;;13.81;61.30;97729.94;5062998;28;20052;-36
2021/09/25 05:56:00;;;;;;;8.48;7.00;;;13.60;77.80;;;13.82;61.30;97725.41;5045891;28;20056;-36
2021/09/25 05:58:27;;;;;;;9.85;6.28;;;13.60;77.70;;;13.83;61.51;97729.75;5065580;28;20046;-37
2021/09/25 06:00:55;;;;;;;7.45;5.72;;;13.50;77.80;;;13.82;61.37;97731.56;5065286;28;20057;-36
2021/09/25 06:03:23;;;;;;;7.95;6.65;;;13.60;77.80;;;13.82;61.43;97733.44;5064090;28;20095;-36
2021/09/25 06:05:52;;;;;;;8.18;6.00;;;13.50;78.10;;;13.81;61.65;97737.13;5064444;28;20056;-36
2021/09/25 06:08:20;;;;;;;9.77;6.72;;;13.50;78.80;;;13.82;61.70;97738.78;5066992;28;20052;-36
2021/09/25 06:10:48;;;;;;;8.45;6.18;;;13.50;78.80;;;13.79;61.83;97732.78;5068302;28;20059;-36
2021/09/25 06:13:16;;;;;;;9.00;6.13;;;13.50;79.00;;;13.81;61.95;97742.50;5069339;28;20224;-36
2021/09/25 06:15:47;;;;;;;7.97;5.85;;;13.50;79.20;;;13.82;62.09;97742.28;5066418;28;20066;-36
2021/09/25 06:18:15;;;;;;;8.43;6.75;;;13.50;79.20;;;13.81;62.06;97748.66;5067583;28;20378;-37
2021/09/25 06:20:43;;;;;;;8.05;6.22;;;13.50;79.30;;;13.82;62.25;97744.97;5067343;28;20261;-36
2021/09/25 06:23:11;;;;;;;8.65;5.93;;;13.50;79.70;;;13.85;62.34;97738.44;5067510;28;20361;-36
2021/09/25 06:25:39;;;;;;;8.93;5.80;;;13.60;80.10;;;13.85;62.42;97741.94;5067818;28;20064;-36
2021/09/25 06:28:07;;;;;;;6.38;4.72;;;13.60;80.40;;;13.89;62.43;97742.41;5069077;28;20056;-37
2021/09/25 06:30:40;;;;;;;7.65;5.10;;;13.60;80.50;;;13.91;62.64;97735.03;5067188;28;20072;-36
2021/09/25 06:33:09;;;;;;;6.95;5.18;;;13.70;80.50;;;13.96;62.48;97736.16;5068088;28;20040;-36
2021/09/25 06:35:38;;;;;;;6.22;4.65;;;13.70;80.10;;;14.01;62.52;97734.78;5066731;28;20066;-36
2021/09/25 06:38:06;;;;;;;7.07;4.88;;;13.80;79.90;;;14.03;62.50;97738.94;5068575;28;20058;-37
2021/09/25 06:40:34;;;;;;;7.03;5.38;;;13.80;79.80;;;14.10;62.49;97749.78;5068037;28;20049;-36
2021/09/25 06:43:03;;;;;;;6.78;4.78;;;13.90;79.80;;;14.12;62.47;97737.03;5068377;28;20048;-37
2021/09/25 06:45:35;;;;;;;8.30;5.45;;;13.90;79.70;;;14.16;62.36;97744.50;5068513;28;20074;-37
2021/09/25 06:48:03;;;;;;;7.88;5.30;;;14.00;79.50;;;14.20;62.36;97742.31;5066705;28;20052;-36
2021/09/25 06:50:32;;;;;;;8.25;4.95;;;14.00;79.30;;;14.24;62.47;97748.94;5066915;28;20247;-36
2021/09/25 06:53:00;;;;;;;8.27;5.35;;;14.00;79.30;;;14.27;62.33;97743.25;5067393;28;20062;-36
2021/09/25 06:55:28;;;;;;;7.47;5.07;;;14.10;79.30;;;14.35;62.36;97747.69;5067417;28;20056;-36
2021/09/25 06:57:56;;;;;;;4.88;4.22;;;14.20;79.00;;;14.40;62.24;97752.50;5067680;28;20396;-36
2021/09/25 07:00:24;;;;;;;6.28;4.80;;;14.30;78.80;;;14.46;62.18;97743.72;5067053;28;20047;-36
2021/09/25 07:02:52;;;;;;;6.40;5.05;;;14.40;78.50;;;14.51;62.30;97744.00;5068264;28;20045;-37
2021/09/25 07:05:20;;;;;;;6.80;5.15;;;14.40;78.40;;;14.55;62.05;97746.13;5067217;28;20044;-36
2021/09/25 07:07:50;;;;;;;6.47;5.15;;;14.50;78.30;;;14.62;62.14;97756.13;5066538;28;20041;-36
2021/09/25 07:10:18;;;;;;;9.75;5.60;;;14.50;78.40;;;14.64;62.07;97748.78;5066080;28;20064;-36
2021/09/25 07:12:46;;;;;;;9.43;6.88;;;14.50;78.50;;;14.69;62.11;97751.72;5068106;28;20056;-37
2021/09/25 07:15:13;;;;;;;8.40;5.60;;;14.60;78.50;;;14.74;62.08;97752.00;5068240;28;20053;-36
2021/09/25 07:17:41;;;;;;;8.88;5.85;;;14.70;78.60;;;14.76;62.10;97750.78;5065136;28;20060;-36
2021/09/25 07:20:10;;;;;;;8.50;6.35;;;14.70;78.40;;;14.82;62.08;97756.44;5066094;28;20055;-37
2021/09/25 07:22:38;;;;;;;6.03;4.60;;;14.70;78.20;;;14.85;62.03;97761.41;5067305;28;20048;-37
2021/09/25 07:25:06;;;;;;;8.30;6.47;;;14.80;78.10;;;14.87;62.00;97764.72;5066239;28;20056;-37
2021/09/25 07:27:35;;;;;;;8.27;5.40;;;14.80;78.20;;;14.90;62.21;97773.22;5066670;28;20056;-37
2021/09/25 07:30:08;;;;;;;6.45;5.40;;;14.80;78.30;;;14.95;62.15;97770.84;5066377;28;20056;-37
2021/09/25 07:32:36;;;;;;;6.65;4.90;;;14.80;78.20;;;15.00;62.20;97775.63;5066828;28;20064;-37
2021/09/25 07:35:06;;;;;;;8.32;4.97;;;14.90;78.20;;;15.08;62.18;97777.38;5066469;28;20052;-37
2021/09/25 07:37:34;;;;;;;5.30;4.68;;;15.00;78.20;;;15.12;62.15;97770.63;5065313;28;20057;-37
2021/09/25 07:40:05;;;;;;;7.70;5.40;;;15.10;78.10;;;15.18;62.19;97779.78;5066979;28;20537;-37
2021/09/25 07:42:33;;;;;;;6.30;4.65;;;15.20;78.10;;;15.24;62.32;97781.72;5065710;28;20060;-37
2021/09/25 07:45:01;;;;;;;7.55;6.53;;;15.20;78.10;;;15.30;62.35;97773.75;5066990;27;20060;-37
2021/09/25 07:47:29;;;;;;;8.23;4.82;;;15.30;78.10;;;15.35;62.37;97773.19;5066533;28;20369;-37
2021/09/25 07:49:56;;;;;;;9.70;5.57;;;15.40;78.10;;;15.41;62.19;97779.63;5067609;28;20162;-37
2021/09/25 07:52:24;;;;;;;8.43;6.13;;;15.50;78.30;;;15.44;62.42;97777.41;5066189;28;20074;-37
2021/09/25 07:54:52;;;;;;;7.97;5.38;;;15.50;78.60;;;15.49;62.50;97779.50;5065763;28;20078;-37
2021/09/25 07:57:20;;;;;;;8.00;5.68;;;15.50;78.70;;;15.55;62.41;97784.16;5065332;28;20052;-37
2021/09/25 07:59:48;;;;;;;6.85;5.65;;;15.60;78.50;;;15.59;62.20;97780.06;5068803;28;20054;-37
2021/09/25 08:02:15;;;;;;;8.20;4.93;;;15.60;78.40;;;15.63;62.30;97777.84;5073939;28;20046;-37
2021/09/25 08:04:44;;;;;;;8.50;5.53;;;15.70;78.30;;;15.66;62.55;97772.91;5076292;28;20043;-37
2021/09/25 08:07:11;;;;;;;7.35;6.10;;;15.70;78.50;;;15.71;62.51;97777.72;5074970;28;20060;-37
2021/09/25 08:09:39;;;;;;;9.27;6.38;;;15.70;78.60;;;15.77;62.59;97771.59;5075253;28;20058;-37
2021/09/25 08:12:11;;;;;;;8.55;5.72;;;15.80;78.60;;;15.83;62.48;97770.84;5073572;28;20108;-37
2021/09/25 08:14:39;;;;;;;7.72;5.22;;;15.90;78.50;;;15.88;62.66;97768.41;5076314;28;20052;-37
2021/09/25 08:17:07;;;;;;;8.70;5.28;;;15.90;79.40;;;15.96;62.59;97769.31;5072492;28;20059;-37
2021/09/25 08:19:37;;;;;;;7.72;5.05;;;16.00;78.40;;;16.02;62.62;97769.38;5065629;28;20056;-37
2021/09/25 08:22:06;;;;;;;6.57;5.45;;;16.10;78.30;;;16.09;62.72;97769.41;5064302;28;20048;-37
2021/09/25 08:24:34;;;;;;;7.53;5.45;;;16.20;78.40;;;16.20;62.68;97770.75;5065589;28;20062;-37
2021/09/25 08:27:02;;;;;;;10.27;6.07;;;16.30;78.40;;;16.27;62.51;97763.59;5064331;28;20052;-37
2021/09/25 08:29:30;;;;;;;7.00;5.30;;;16.40;78.30;;;16.35;62.42;97768.81;5064887;28;20060;-37
2021/09/25 08:31:58;;;;;;;8.10;5.68;;;16.50;78.30;;;16.42;62.60;97766.16;5064835;28;20074;-37
2021/09/25 08:34:26;;;;;;;9.02;6.07;;;16.50;78.20;;;16.51;62.74;97765.00;5063450;28;20056;-37
2021/09/25 08:36:54;;;;;;;8.18;5.90;;;16.70;78.30;;;16.57;62.42;97768.75;5065693;28;20064;-37
2021/09/25 08:39:22;;;;;;;6.82;6.00;;;16.70;78.10;;;16.62;62.61;97766.31;5065829;28;20057;-37
2021/09/25 08:41:52;;;;;;;8.60;5.90;;;16.70;78.00;;;16.66;62.57;97762.22;5065154;28;20052;-37
2021/09/25 08:44:21;;;;;;;8.07;6.00;;;16.80;78.10;;;16.75;62.66;97766.41;5064501;28;20058;-37
2021/09/25 08:46:48;;;;;;;7.68;5.90;;;16.90;78.20;;;16.82;62.50;97764.59;5064916;28;20608;-37
2021/09/25 08:49:16;;;;;;;7.93;6.03;;;17.00;78.10;;;16.86;62.30;97765.88;5065571;28;20239;-37
2021/09/25 08:51:45;;;;;;;7.32;5.50;;;17.00;78.00;;;16.95;62.42;97771.09;5065552;28;20049;-37
2021/09/25 08:54:13;;;;;;;7.85;6.25;;;17.10;78.00;;;16.98;62.39;97763.44;5065064;28;20060;-37
2021/09/25 08:56:41;;;;;;;9.02;5.63;;;17.10;77.90;;;17.03;62.44;97757.47;5065505;28;20067;-37
2021/09/25 08:59:09;;;;;;;7.72;6.15;;;17.20;77.80;;;17.08;62.25;97761.25;5065468;28;20090;-37
2021/09/25 09:01:43;;;;;;;11.93;6.32;;;17.20;77.80;;;17.13;62.16;97755.25;5064667;28;20230;-37
2021/09/25 09:04:12;;;;;;;10.77;6.95;;;17.30;77.60;;;17.18;62.10;97754.66;5065520;28;20052;-37
2021/09/25 09:06:40;;;;;;;9.10;6.18;;;17.30;77.60;;;17.22;62.24;97751.34;5065784;28;20253;-37
2021/09/25 09:09:10;;;;;;;8.18;5.53;;;17.40;77.60;;;17.29;62.14;97764.81;5063610;28;20246;-37
2021/09/25 09:11:46;;;;;;;7.13;5.70;;;17.40;77.60;;;17.34;62.26;97759.69;5064987;28;20059;-37
2021/09/25 09:14:16;;;;;;;7.28;5.53;;;17.50;77.70;;;17.42;62.04;97755.97;5064286;28;20322;-37
2021/09/25 09:16:57;;;;;;;8.18;5.72;;;17.60;77.50;;;17.48;61.96;97753.28;5064072;28;20063;-37
2021/09/25 09:19:36;;;;;;;9.73;5.97;;;17.60;77.20;;;17.53;61.90;97752.72;5063578;28;20048;-37
2021/09/25 09:22:05;;;;;;;8.55;6.05;;;17.70;77.40;;;17.59;61.94;97748.38;5064054;28;20082;-37
2021/09/25 09:24:55;;;;;;;9.05;6.57;;;17.80;77.50;;;17.66;61.86;97752.75;5064385;28;20056;-37
2021/09/25 09:27:28;;;;;;;8.82;6.40;;;17.90;77.50;;;17.75;62.07;97750.69;5065562;28;20246;-37
2021/09/25 09:30:10;;;;;;;8.70;6.38;;;17.90;77.60;;;17.81;61.87;97754.41;5065897;28;20190;-37
2021/09/25 09:32:45;;;;;;;9.25;6.28;;;18.00;77.40;;;17.92;61.93;97751.16;5064754;28;20369;-37
2021/09/25 09:35:20;;;;;;;8.60;6.93;;;18.10;77.50;;;18.00;61.90;97758.22;5065512;28;20044;-37
2021/09/25 09:37:55;;;;;;;13.73;6.45;;;18.10;77.40;;;18.05;61.92;97748.47;5064774;28;20049;-37
2021/09/25 09:40:23;;;;;;;7.50;6.15;;;18.20;77.20;;;18.13;61.92;97743.94;5066163;28;20058;-37
2021/09/25 09:42:52;;;;;;;8.73;6.60;;;18.30;77.20;;;18.23;61.84;97747.03;5068189;28;20049;-37
2021/09/25 09:45:31;;;;;;;7.93;5.78;;;18.40;77.10;;;18.33;61.90;97750.13;5068756;28;20044;-37
2021/09/25 09:47:59;;;;;;;9.82;6.80;;;18.50;77.40;;;18.41;61.66;97744.50;5067677;28;20271;-37
2021/09/25 09:50:29;;;;;;;7.22;5.55;;;18.60;77.10;;;18.47;62.01;97743.66;5069244;28;20376;-37
2021/09/25 09:53:14;;;;;;;8.50;5.82;;;18.70;77.30;;;18.55;61.76;97737.22;5068620;28;20063;-37
2021/09/25 09:55:46;;;;;;;7.35;5.82;;;18.80;77.00;;;18.65;61.41;97729.56;5068317;28;20048;-37
2021/09/25 09:58:13;;;;;;;6.18;4.82;;;18.80;76.70;;;18.70;61.52;97737.00;5068325;28;20059;-37
2021/09/25 10:00:41;;;;;;;7.35;6.35;;;18.90;76.50;;;18.82;61.46;97734.50;5069288;28;20048;-37
2021/09/25 10:03:11;;;;;;;7.30;5.07;;;19.00;76.50;;;18.89;60.96;97735.34;5068330;28;20059;-37
2021/09/25 10:05:40;;;;;;;6.95;5.50;;;19.10;76.20;;;18.93;60.92;97728.47;5067049;28;20044;-37
2021/09/25 10:08:09;;;;;;;7.88;5.93;;;19.10;76.00;;;18.99;60.72;97726.78;5069290;28;20070;-37
2021/09/25 10:10:37;;;;;;;6.55;5.70;;;19.10;75.60;;;19.03;60.77;97725.31;5067618;28;20056;-37
2021/09/25 10:13:06;;;;;;;7.05;5.80;;;19.20;75.50;;;19.08;60.55;97720.13;5066315;28;20071;-37
2021/09/25 10:15:34;;;;;;;6.88;5.63;;;19.30;75.50;;;19.16;60.36;97717.19;5066611;28;20064;-37
2021/09/25 10:18:02;;;;;;;9.70;5.78;;;19.30;75.30;;;19.23;60.37;97712.59;5067921;28;20060;-38
2021/09/25 10:20:30;;;;;;;7.22;6.10;;;19.40;75.10;;;19.31;60.49;97718.75;5067060;28;20262;-38
2021/09/25 10:22:59;;;;;;;7.70;5.70;;;19.50;75.30;;;19.36;60.28;97716.25;5067480;28;20060;-37
2021/09/25 10:25:27;;;;;;;6.10;5.50;;;19.60;74.80;;;19.34;59.95;97716.47;5066994;28;20355;-38